sensor_id;sensor_type;location;lat;lon;timestamp;P1;durP1;ratioP1;P2;durP2;ratioP2
56868;SDS011;42754;0.000;0.000;2022-08-19T00:00:04;7.20;;;5.60;;
56868;SDS011;42754;0.000;0.000;2022-08-19T00:02:33;9.40;;;5.18;;
56868;SDS011;42754;0.000;0.000;2022-08-19T00:04:59;8.65;;;6.82;;
56868;SDS011;42754;0.000;0.000;2022-08-19T00:07:24;10.75;;;6.28;;
56868;SDS011;42754;0.000;0.000;2022-08-19T00:09:50;9.73;;;7.07;;
56868;SDS011;42754;0.000;0.000;2022-08-19T00:12:16;10.73;;;7.07;;
56868;SDS011;42754;0.000;0.000;2022-08-19T00:14:41;9.65;;;6.15;;
56868;SDS011;42754;0.000;0.000;2022-08-19T00:17:08;8.20;;;5.63;;
56868;SDS011;42754;0.000;0.000;2022-08-19T00:19:35;7.43;;;5.55;;
56868;SDS011;42754;0.000;0.000;2022-08-19T00:22:01;8.80;;;5.40;;
56868;SDS011;42754;0.000;0.000;2022-08-19T00:24:28;8.50;;;6.15;;
56868;SDS011;42754;0.000;0.000;2022-08-19T00:26:54;8.48;;;6.18;;
56868;SDS011;42754;0.000;0.000;2022-08-19T00:29:20;8.95;;;6.03;;
56868;SDS011;42754;0.000;0.000;2022-08-19T00:31:47;9.20;;;6.15;;
56868;SDS011;42754;0.000;0.000;2022-08-19T00:34:14;9.45;;;6.13;;
56868;SDS011;42754;0.000;0.000;2022-08-19T00:36:40;8.77;;;6.15;;
56868;SDS011;42754;0.000;0.000;2022-08-19T00:39:06;13.50;;;6.90;;
56868;SDS011;42754;0.000;0.000;2022-08-19T00:41:33;10.13;;;6.28;;
56868;SDS011;42754;0.000;0.000;2022-08-19T00:44:21;11.18;;;6.63;;
56868;SDS011;42754;0.000;0.000;2022-08-19T00:46:48;7.57;;;5.32;;
56868;SDS011;42754;0.000;0.000;2022-08-19T00:49:29;7.13;;;5.90;;
56868;SDS011;42754;0.000;0.000;2022-08-19T00:52:09;8.35;;;5.43;;
56868;SDS011;42754;0.000;0.000;2022-08-19T00:54:39;9.25;;;5.90;;
56868;SDS011;42754;0.000;0.000;2022-08-19T00:57:07;12.68;;;6.88;;
56868;SDS011;42754;0.000;0.000;2022-08-19T00:59:37;7.53;;;5.80;;
56868;SDS011;42754;0.000;0.000;2022-08-19T01:02:05;10.88;;;6.82;;
56868;SDS011;42754;0.000;0.000;2022-08-19T01:04:31;7.88;;;6.47;;
56868;SDS011;42754;0.000;0.000;2022-08-19T01:06:57;8.98;;;6.60;;
56868;SDS011;42754;0.000;0.000;2022-08-19T01:09:24;11.00;;;6.78;;
56868;SDS011;42754;0.000;0.000;2022-08-19T01:11:49;9.00;;;6.32;;
56868;SDS011;42754;0.000;0.000;2022-08-19T01:14:16;7.53;;;5.68;;
56868;SDS011;42754;0.000;0.000;2022-08-19T01:16:42;9.73;;;6.15;;
56868;SDS011;42754;0.000;0.000;2022-08-19T01:22:04;12.05;;;7.10;;
56868;SDS011;42754;0.000;0.000;2022-08-19T01:24:35;7.38;;;5.78;;
56868;SDS011;42754;0.000;0.000;2022-08-19T01:27:03;9.57;;;6.15;;
56868;SDS011;42754;0.000;0.000;2022-08-19T01:29:29;10.48;;;6.28;;
56868;SDS011;42754;0.000;0.000;2022-08-19T01:31:55;9.68;;;6.05;;
56868;SDS011;42754;0.000;0.000;2022-08-19T01:34:21;12.10;;;6.20;;
56868;SDS011;42754;0.000;0.000;2022-08-19T01:36:47;9.00;;;6.82;;
56868;SDS011;42754;0.000;0.000;2022-08-19T01:39:15;10.13;;;6.22;;
56868;SDS011;42754;0.000;0.000;2022-08-19T01:41:44;8.57;;;6.28;;
56868;SDS011;42754;0.000;0.000;2022-08-19T01:44:10;12.88;;;6.97;;
56868;SDS011;42754;0.000;0.000;2022-08-19T01:46:36;11.65;;;7.05;;
56868;SDS011;42754;0.000;0.000;2022-08-19T01:49:04;9.82;;;7.07;;
56868;SDS011;42754;0.000;0.000;2022-08-19T01:51:30;11.05;;;7.65;;
56868;SDS011;42754;0.000;0.000;2022-08-19T01:53:57;11.23;;;7.75;;
56868;SDS011;42754;0.000;0.000;2022-08-19T01:56:23;10.18;;;7.35;;
56868;SDS011;42754;0.000;0.000;2022-08-19T01:58:51;10.45;;;6.93;;
56868;SDS011;42754;0.000;0.000;2022-08-19T02:01:20;10.57;;;6.63;;
56868;SDS011;42754;0.000;0.000;2022-08-19T02:03:46;12.20;;;7.50;;
56868;SDS011;42754;0.000;0.000;2022-08-19T02:06:11;10.18;;;6.85;;
56868;SDS011;42754;0.000;0.000;2022-08-19T02:08:38;11.95;;;7.13;;
56868;SDS011;42754;0.000;0.000;2022-08-19T02:11:04;11.88;;;7.13;;
56868;SDS011;42754;0.000;0.000;2022-08-19T02:13:31;9.30;;;6.55;;
56868;SDS011;42754;0.000;0.000;2022-08-19T02:15:57;9.80;;;6.50;;
56868;SDS011;42754;0.000;0.000;2022-08-19T02:18:22;9.68;;;6.82;;
56868;SDS011;42754;0.000;0.000;2022-08-19T02:20:48;11.40;;;7.30;;
56868;SDS011;42754;0.000;0.000;2022-08-19T02:23:15;12.30;;;6.95;;
56868;SDS011;42754;0.000;0.000;2022-08-19T02:25:43;8.75;;;6.95;;
56868;SDS011;42754;0.000;0.000;2022-08-19T02:28:10;10.18;;;6.85;;
56868;SDS011;42754;0.000;0.000;2022-08-19T02:30:37;10.07;;;7.40;;
56868;SDS011;42754;0.000;0.000;2022-08-19T02:33:03;9.98;;;6.93;;
56868;SDS011;42754;0.000;0.000;2022-08-19T02:35:29;11.60;;;6.53;;
56868;SDS011;42754;0.000;0.000;2022-08-19T02:37:56;10.32;;;6.13;;
56868;SDS011;42754;0.000;0.000;2022-08-19T02:40:40;9.27;;;6.40;;
56868;SDS011;42754;0.000;0.000;2022-08-19T02:43:14;10.43;;;7.25;;
56868;SDS011;42754;0.000;0.000;2022-08-19T02:45:40;12.80;;;7.40;;
56868;SDS011;42754;0.000;0.000;2022-08-19T02:48:06;11.38;;;6.72;;
56868;SDS011;42754;0.000;0.000;2022-08-19T02:50:32;9.98;;;6.57;;
56868;SDS011;42754;0.000;0.000;2022-08-19T02:52:58;10.55;;;6.50;;
56868;SDS011;42754;0.000;0.000;2022-08-19T02:55:24;10.00;;;6.40;;
56868;SDS011;42754;0.000;0.000;2022-08-19T02:57:49;9.73;;;6.47;;
56868;SDS011;42754;0.000;0.000;2022-08-19T03:00:15;11.43;;;7.13;;
56868;SDS011;42754;0.000;0.000;2022-08-19T03:02:41;9.55;;;6.72;;
56868;SDS011;42754;0.000;0.000;2022-08-19T03:05:07;10.13;;;6.63;;
56868;SDS011;42754;0.000;0.000;2022-08-19T03:07:34;9.23;;;6.35;;
56868;SDS011;42754;0.000;0.000;2022-08-19T03:10:01;10.98;;;6.82;;
56868;SDS011;42754;0.000;0.000;2022-08-19T03:12:27;9.73;;;6.13;;
56868;SDS011;42754;0.000;0.000;2022-08-19T03:14:54;12.55;;;7.38;;
56868;SDS011;42754;0.000;0.000;2022-08-19T03:17:20;10.68;;;6.30;;
56868;SDS011;42754;0.000;0.000;2022-08-19T03:19:45;10.27;;;6.68;;
56868;SDS011;42754;0.000;0.000;2022-08-19T03:22:11;9.90;;;6.78;;
56868;SDS011;42754;0.000;0.000;2022-08-19T03:24:37;11.52;;;6.65;;
56868;SDS011;42754;0.000;0.000;2022-08-19T03:27:03;9.32;;;6.53;;
56868;SDS011;42754;0.000;0.000;2022-08-19T03:29:30;10.45;;;6.97;;
56868;SDS011;42754;0.000;0.000;2022-08-19T03:31:59;9.40;;;6.57;;
56868;SDS011;42754;0.000;0.000;2022-08-19T03:34:28;10.53;;;6.47;;
56868;SDS011;42754;0.000;0.000;2022-08-19T03:36:56;11.25;;;6.68;;
56868;SDS011;42754;0.000;0.000;2022-08-19T03:39:24;9.88;;;6.85;;
56868;SDS011;42754;0.000;0.000;2022-08-19T03:41:53;13.07;;;7.88;;
56868;SDS011;42754;0.000;0.000;2022-08-19T03:44:22;15.82;;;6.72;;
56868;SDS011;42754;0.000;0.000;2022-08-19T03:46:49;10.00;;;6.78;;
56868;SDS011;42754;0.000;0.000;2022-08-19T03:49:20;10.55;;;7.03;;
56868;SDS011;42754;0.000;0.000;2022-08-19T03:51:47;11.48;;;7.57;;
56868;SDS011;42754;0.000;0.000;2022-08-19T03:54:15;10.77;;;7.43;;
56868;SDS011;42754;0.000;0.000;2022-08-19T03:56:48;10.05;;;6.40;;
56868;SDS011;42754;0.000;0.000;2022-08-19T03:59:20;11.05;;;6.43;;
56868;SDS011;42754;0.000;0.000;2022-08-19T04:01:50;10.00;;;6.05;;
56868;SDS011;42754;0.000;0.000;2022-08-19T04:04:16;8.98;;;6.05;;
56868;SDS011;42754;0.000;0.000;2022-08-19T04:06:42;11.52;;;6.57;;
56868;SDS011;42754;0.000;0.000;2022-08-19T04:09:09;9.85;;;6.07;;
56868;SDS011;42754;0.000;0.000;2022-08-19T04:11:37;9.82;;;6.72;;
56868;SDS011;42754;0.000;0.000;2022-08-19T04:14:21;10.40;;;5.80;;
56868;SDS011;42754;0.000;0.000;2022-08-19T04:16:49;9.15;;;5.93;;
56868;SDS011;42754;0.000;0.000;2022-08-19T04:19:17;9.13;;;5.82;;
56868;SDS011;42754;0.000;0.000;2022-08-19T04:21:45;8.63;;;5.55;;
56868;SDS011;42754;0.000;0.000;2022-08-19T04:24:13;8.57;;;5.85;;
56868;SDS011;42754;0.000;0.000;2022-08-19T04:26:40;9.27;;;6.10;;
56868;SDS011;42754;0.000;0.000;2022-08-19T04:29:08;6.40;;;5.13;;
56868;SDS011;42754;0.000;0.000;2022-08-19T04:31:46;8.30;;;5.63;;
56868;SDS011;42754;0.000;0.000;2022-08-19T04:34:13;8.95;;;5.57;;
56868;SDS011;42754;0.000;0.000;2022-08-19T04:36:41;12.07;;;6.43;;
56868;SDS011;42754;0.000;0.000;2022-08-19T04:39:14;10.32;;;5.90;;
56868;SDS011;42754;0.000;0.000;2022-08-19T04:41:42;10.10;;;6.55;;
56868;SDS011;42754;0.000;0.000;2022-08-19T04:44:27;11.68;;;6.18;;
56868;SDS011;42754;0.000;0.000;2022-08-19T04:46:55;9.75;;;6.13;;
56868;SDS011;42754;0.000;0.000;2022-08-19T04:49:21;9.00;;;5.78;;
56868;SDS011;42754;0.000;0.000;2022-08-19T04:51:48;9.10;;;5.57;;
56868;SDS011;42754;0.000;0.000;2022-08-19T04:54:18;12.13;;;6.18;;
56868;SDS011;42754;0.000;0.000;2022-08-19T04:56:48;9.27;;;5.78;;
56868;SDS011;42754;0.000;0.000;2022-08-19T04:59:15;11.48;;;6.60;;
56868;SDS011;42754;0.000;0.000;2022-08-19T05:01:42;12.15;;;6.00;;
56868;SDS011;42754;0.000;0.000;2022-08-19T05:04:08;10.40;;;6.18;;
56868;SDS011;42754;0.000;0.000;2022-08-19T05:06:34;10.02;;;6.00;;
56868;SDS011;42754;0.000;0.000;2022-08-19T05:09:02;11.38;;;6.20;;
56868;SDS011;42754;0.000;0.000;2022-08-19T05:11:32;13.38;;;5.97;;
56868;SDS011;42754;0.000;0.000;2022-08-19T05:13:59;9.57;;;5.93;;
56868;SDS011;42754;0.000;0.000;2022-08-19T05:16:26;13.60;;;8.25;;
56868;SDS011;42754;0.000;0.000;2022-08-19T05:18:53;12.13;;;7.68;;
56868;SDS011;42754;0.000;0.000;2022-08-19T05:21:39;9.95;;;6.85;;
56868;SDS011;42754;0.000;0.000;2022-08-19T05:24:25;11.52;;;6.65;;
56868;SDS011;42754;0.000;0.000;2022-08-19T05:26:52;11.30;;;7.65;;
56868;SDS011;42754;0.000;0.000;2022-08-19T05:29:21;13.57;;;7.20;;
56868;SDS011;42754;0.000;0.000;2022-08-19T05:31:48;9.30;;;6.40;;
56868;SDS011;42754;0.000;0.000;2022-08-19T05:34:15;12.95;;;7.30;;
56868;SDS011;42754;0.000;0.000;2022-08-19T05:36:42;14.07;;;7.75;;
56868;SDS011;42754;0.000;0.000;2022-08-19T05:39:11;13.73;;;7.55;;
56868;SDS011;42754;0.000;0.000;2022-08-19T05:41:43;11.63;;;7.40;;
56868;SDS011;42754;0.000;0.000;2022-08-19T05:44:14;11.25;;;7.47;;
56868;SDS011;42754;0.000;0.000;2022-08-19T05:46:43;12.90;;;7.90;;
56868;SDS011;42754;0.000;0.000;2022-08-19T05:49:12;10.48;;;6.55;;
56868;SDS011;42754;0.000;0.000;2022-08-19T05:51:39;12.18;;;7.00;;
56868;SDS011;42754;0.000;0.000;2022-08-19T05:54:04;13.60;;;8.50;;
56868;SDS011;42754;0.000;0.000;2022-08-19T05:56:31;11.88;;;7.72;;
56868;SDS011;42754;0.000;0.000;2022-08-19T05:58:57;11.88;;;6.55;;
56868;SDS011;42754;0.000;0.000;2022-08-19T06:01:24;8.45;;;6.13;;
56868;SDS011;42754;0.000;0.000;2022-08-19T06:03:50;9.93;;;5.72;;
56868;SDS011;42754;0.000;0.000;2022-08-19T06:06:17;9.38;;;6.68;;
56868;SDS011;42754;0.000;0.000;2022-08-19T06:08:43;7.38;;;5.40;;
56868;SDS011;42754;0.000;0.000;2022-08-19T06:11:20;8.35;;;5.75;;
56868;SDS011;42754;0.000;0.000;2022-08-19T06:13:50;8.30;;;5.30;;
56868;SDS011;42754;0.000;0.000;2022-08-19T06:16:21;8.93;;;5.38;;
56868;SDS011;42754;0.000;0.000;2022-08-19T06:18:56;8.10;;;5.97;;
56868;SDS011;42754;0.000;0.000;2022-08-19T06:21:25;5.78;;;4.65;;
56868;SDS011;42754;0.000;0.000;2022-08-19T06:23:52;5.97;;;4.35;;
56868;SDS011;42754;0.000;0.000;2022-08-19T06:26:19;8.50;;;4.65;;
56868;SDS011;42754;0.000;0.000;2022-08-19T06:28:45;7.78;;;5.35;;
56868;SDS011;42754;0.000;0.000;2022-08-19T06:31:13;8.73;;;5.35;;
56868;SDS011;42754;0.000;0.000;2022-08-19T06:33:42;8.77;;;6.35;;
56868;SDS011;42754;0.000;0.000;2022-08-19T06:36:19;14.05;;;9.13;;
56868;SDS011;42754;0.000;0.000;2022-08-19T06:38:46;17.83;;;10.77;;
56868;SDS011;42754;0.000;0.000;2022-08-19T06:41:12;18.50;;;11.38;;
56868;SDS011;42754;0.000;0.000;2022-08-19T06:43:38;16.52;;;10.25;;
56868;SDS011;42754;0.000;0.000;2022-08-19T06:46:03;20.50;;;12.85;;
56868;SDS011;42754;0.000;0.000;2022-08-19T06:48:36;22.92;;;13.35;;
56868;SDS011;42754;0.000;0.000;2022-08-19T06:51:02;24.60;;;13.07;;
56868;SDS011;42754;0.000;0.000;2022-08-19T06:53:30;23.80;;;14.48;;
56868;SDS011;42754;0.000;0.000;2022-08-19T06:55:56;26.73;;;14.32;;
56868;SDS011;42754;0.000;0.000;2022-08-19T06:58:25;26.23;;;13.75;;
56868;SDS011;42754;0.000;0.000;2022-08-19T07:00:51;29.58;;;15.38;;
56868;SDS011;42754;0.000;0.000;2022-08-19T07:03:16;23.60;;;15.35;;
56868;SDS011;42754;0.000;0.000;2022-08-19T07:05:42;28.75;;;16.80;;
56868;SDS011;42754;0.000;0.000;2022-08-19T07:08:08;24.45;;;12.50;;
56868;SDS011;42754;0.000;0.000;2022-08-19T07:10:34;27.92;;;14.82;;
56868;SDS011;42754;0.000;0.000;2022-08-19T07:13:01;27.25;;;13.85;;
56868;SDS011;42754;0.000;0.000;2022-08-19T07:15:28;23.52;;;15.23;;
56868;SDS011;42754;0.000;0.000;2022-08-19T07:17:55;29.92;;;15.63;;
56868;SDS011;42754;0.000;0.000;2022-08-19T07:20:21;28.10;;;16.33;;
56868;SDS011;42754;0.000;0.000;2022-08-19T07:22:48;30.80;;;16.58;;
56868;SDS011;42754;0.000;0.000;2022-08-19T07:25:14;25.98;;;15.82;;
56868;SDS011;42754;0.000;0.000;2022-08-19T07:27:42;26.90;;;15.50;;
56868;SDS011;42754;0.000;0.000;2022-08-19T07:30:09;21.58;;;12.90;;
56868;SDS011;42754;0.000;0.000;2022-08-19T07:32:36;23.75;;;13.85;;
56868;SDS011;42754;0.000;0.000;2022-08-19T07:35:02;24.65;;;12.75;;
56868;SDS011;42754;0.000;0.000;2022-08-19T07:37:29;26.35;;;13.98;;
56868;SDS011;42754;0.000;0.000;2022-08-19T07:39:55;20.90;;;12.57;;
56868;SDS011;42754;0.000;0.000;2022-08-19T07:42:20;23.75;;;13.35;;
56868;SDS011;42754;0.000;0.000;2022-08-19T07:44:46;24.83;;;14.32;;
56868;SDS011;42754;0.000;0.000;2022-08-19T07:47:12;25.92;;;15.02;;
56868;SDS011;42754;0.000;0.000;2022-08-19T07:49:40;31.52;;;15.00;;
56868;SDS011;42754;0.000;0.000;2022-08-19T07:52:07;32.35;;;19.13;;
56868;SDS011;42754;0.000;0.000;2022-08-19T07:54:36;29.33;;;17.95;;
56868;SDS011;42754;0.000;0.000;2022-08-19T07:57:03;31.77;;;17.80;;
56868;SDS011;42754;0.000;0.000;2022-08-19T07:59:29;29.17;;;14.18;;
56868;SDS011;42754;0.000;0.000;2022-08-19T08:01:56;29.42;;;15.82;;
56868;SDS011;42754;0.000;0.000;2022-08-19T08:04:23;36.22;;;19.50;;
56868;SDS011;42754;0.000;0.000;2022-08-19T08:07:07;30.70;;;16.15;;
56868;SDS011;42754;0.000;0.000;2022-08-19T08:09:51;30.98;;;15.25;;
56868;SDS011;42754;0.000;0.000;2022-08-19T08:12:20;35.90;;;18.70;;
56868;SDS011;42754;0.000;0.000;2022-08-19T08:14:56;43.35;;;21.48;;
56868;SDS011;42754;0.000;0.000;2022-08-19T08:17:25;34.22;;;19.45;;
56868;SDS011;42754;0.000;0.000;2022-08-19T08:19:52;35.97;;;19.17;;
56868;SDS011;42754;0.000;0.000;2022-08-19T08:22:19;35.08;;;18.10;;
56868;SDS011;42754;0.000;0.000;2022-08-19T08:27:36;39.80;;;18.75;;
56868;SDS011;42754;0.000;0.000;2022-08-19T08:30:09;46.13;;;21.88;;
56868;SDS011;42754;0.000;0.000;2022-08-19T08:32:38;44.10;;;20.73;;
56868;SDS011;42754;0.000;0.000;2022-08-19T08:35:05;42.40;;;22.75;;
56868;SDS011;42754;0.000;0.000;2022-08-19T08:37:32;43.85;;;23.20;;
56868;SDS011;42754;0.000;0.000;2022-08-19T08:39:58;47.83;;;26.27;;
56868;SDS011;42754;0.000;0.000;2022-08-19T08:42:27;45.33;;;24.85;;
56868;SDS011;42754;0.000;0.000;2022-08-19T08:45:03;48.10;;;22.95;;
56868;SDS011;42754;0.000;0.000;2022-08-19T08:47:43;43.33;;;24.27;;
56868;SDS011;42754;0.000;0.000;2022-08-19T08:50:18;45.20;;;25.45;;
56868;SDS011;42754;0.000;0.000;2022-08-19T08:52:51;64.10;;;24.73;;
56868;SDS011;42754;0.000;0.000;2022-08-19T08:55:22;51.00;;;24.98;;
56868;SDS011;42754;0.000;0.000;2022-08-19T08:57:53;48.40;;;24.17;;
56868;SDS011;42754;0.000;0.000;2022-08-19T09:00:26;47.17;;;22.27;;
56868;SDS011;42754;0.000;0.000;2022-08-19T09:02:55;47.03;;;25.17;;
56868;SDS011;42754;0.000;0.000;2022-08-19T09:05:22;37.13;;;18.77;;
56868;SDS011;42754;0.000;0.000;2022-08-19T09:10:59;39.97;;;21.58;;
56868;SDS011;42754;0.000;0.000;2022-08-19T09:16:11;37.38;;;22.92;;
56868;SDS011;42754;0.000;0.000;2022-08-19T09:18:44;46.97;;;27.40;;
56868;SDS011;42754;0.000;0.000;2022-08-19T09:21:14;30.85;;;18.00;;
56868;SDS011;42754;0.000;0.000;2022-08-19T09:23:40;32.88;;;18.48;;
56868;SDS011;42754;0.000;0.000;2022-08-19T09:26:09;26.92;;;16.60;;
56868;SDS011;42754;0.000;0.000;2022-08-19T09:28:38;25.10;;;14.95;;
56868;SDS011;42754;0.000;0.000;2022-08-19T09:31:09;19.38;;;12.68;;
56868;SDS011;42754;0.000;0.000;2022-08-19T09:33:39;23.10;;;13.95;;
56868;SDS011;42754;0.000;0.000;2022-08-19T09:36:06;21.58;;;12.60;;
56868;SDS011;42754;0.000;0.000;2022-08-19T09:38:35;19.05;;;12.18;;
56868;SDS011;42754;0.000;0.000;2022-08-19T09:41:04;22.17;;;12.60;;
56868;SDS011;42754;0.000;0.000;2022-08-19T09:43:32;16.00;;;10.55;;
56868;SDS011;42754;0.000;0.000;2022-08-19T09:45:59;19.02;;;10.77;;
56868;SDS011;42754;0.000;0.000;2022-08-19T09:48:25;20.05;;;13.10;;
56868;SDS011;42754;0.000;0.000;2022-08-19T09:50:51;22.98;;;14.25;;
56868;SDS011;42754;0.000;0.000;2022-08-19T09:53:17;18.95;;;12.13;;
56868;SDS011;42754;0.000;0.000;2022-08-19T09:55:43;20.05;;;11.93;;
56868;SDS011;42754;0.000;0.000;2022-08-19T09:58:09;21.98;;;10.95;;
56868;SDS011;42754;0.000;0.000;2022-08-19T10:00:37;16.20;;;8.63;;
56868;SDS011;42754;0.000;0.000;2022-08-19T10:03:03;21.88;;;12.60;;
56868;SDS011;42754;0.000;0.000;2022-08-19T10:05:28;23.83;;;13.57;;
56868;SDS011;42754;0.000;0.000;2022-08-19T10:08:13;21.45;;;11.23;;
56868;SDS011;42754;0.000;0.000;2022-08-19T10:10:39;21.27;;;13.73;;
56868;SDS011;42754;0.000;0.000;2022-08-19T10:13:08;21.65;;;12.40;;
56868;SDS011;42754;0.000;0.000;2022-08-19T10:15:34;31.13;;;19.15;;
56868;SDS011;42754;0.000;0.000;2022-08-19T10:18:00;29.08;;;16.92;;
56868;SDS011;42754;0.000;0.000;2022-08-19T10:20:26;31.27;;;17.45;;
56868;SDS011;42754;0.000;0.000;2022-08-19T10:22:51;28.17;;;15.95;;
56868;SDS011;42754;0.000;0.000;2022-08-19T10:25:17;24.30;;;14.15;;
56868;SDS011;42754;0.000;0.000;2022-08-19T10:27:43;26.42;;;15.82;;
56868;SDS011;42754;0.000;0.000;2022-08-19T10:30:09;25.33;;;14.70;;
56868;SDS011;42754;0.000;0.000;2022-08-19T10:32:35;24.20;;;12.93;;
56868;SDS011;42754;0.000;0.000;2022-08-19T10:35:01;28.75;;;14.90;;
56868;SDS011;42754;0.000;0.000;2022-08-19T10:37:32;26.05;;;14.05;;
56868;SDS011;42754;0.000;0.000;2022-08-19T10:39:57;21.42;;;12.88;;
56868;SDS011;42754;0.000;0.000;2022-08-19T10:42:23;16.92;;;10.25;;
56868;SDS011;42754;0.000;0.000;2022-08-19T10:44:49;15.68;;;9.50;;
56868;SDS011;42754;0.000;0.000;2022-08-19T10:47:15;19.23;;;10.52;;
56868;SDS011;42754;0.000;0.000;2022-08-19T10:49:40;15.40;;;7.88;;
56868;SDS011;42754;0.000;0.000;2022-08-19T10:52:25;13.75;;;7.60;;
56868;SDS011;42754;0.000;0.000;2022-08-19T10:55:03;17.20;;;9.80;;
56868;SDS011;42754;0.000;0.000;2022-08-19T10:57:49;15.85;;;8.98;;
56868;SDS011;42754;0.000;0.000;2022-08-19T11:00:15;27.02;;;14.25;;
56868;SDS011;42754;0.000;0.000;2022-08-19T11:02:40;18.45;;;10.68;;
56868;SDS011;42754;0.000;0.000;2022-08-19T11:05:07;17.58;;;9.70;;
56868;SDS011;42754;0.000;0.000;2022-08-19T11:07:35;19.13;;;10.13;;
56868;SDS011;42754;0.000;0.000;2022-08-19T11:10:03;22.88;;;10.45;;
56868;SDS011;42754;0.000;0.000;2022-08-19T11:12:29;19.20;;;9.50;;
56868;SDS011;42754;0.000;0.000;2022-08-19T11:14:55;19.38;;;11.45;;
56868;SDS011;42754;0.000;0.000;2022-08-19T11:17:20;22.20;;;10.30;;
56868;SDS011;42754;0.000;0.000;2022-08-19T11:19:48;17.30;;;9.23;;
56868;SDS011;42754;0.000;0.000;2022-08-19T11:22:15;23.67;;;10.63;;
56868;SDS011;42754;0.000;0.000;2022-08-19T11:24:41;15.80;;;9.00;;
56868;SDS011;42754;0.000;0.000;2022-08-19T11:27:07;24.25;;;14.90;;
56868;SDS011;42754;0.000;0.000;2022-08-19T11:29:35;20.48;;;11.57;;
56868;SDS011;42754;0.000;0.000;2022-08-19T11:32:05;20.40;;;10.32;;
56868;SDS011;42754;0.000;0.000;2022-08-19T11:34:34;29.30;;;14.90;;
56868;SDS011;42754;0.000;0.000;2022-08-19T11:37:01;24.27;;;12.75;;
56868;SDS011;42754;0.000;0.000;2022-08-19T11:39:29;22.30;;;11.63;;
56868;SDS011;42754;0.000;0.000;2022-08-19T11:41:57;22.15;;;12.25;;
56868;SDS011;42754;0.000;0.000;2022-08-19T11:44:23;22.33;;;12.82;;
56868;SDS011;42754;0.000;0.000;2022-08-19T11:46:49;29.63;;;14.65;;
56868;SDS011;42754;0.000;0.000;2022-08-19T11:49:16;25.88;;;16.10;;
56868;SDS011;42754;0.000;0.000;2022-08-19T11:51:44;25.77;;;14.02;;
56868;SDS011;42754;0.000;0.000;2022-08-19T11:54:10;23.67;;;11.15;;
56868;SDS011;42754;0.000;0.000;2022-08-19T11:56:37;25.45;;;13.18;;
56868;SDS011;42754;0.000;0.000;2022-08-19T11:59:03;25.73;;;13.88;;
56868;SDS011;42754;0.000;0.000;2022-08-19T12:01:29;26.55;;;13.57;;
56868;SDS011;42754;0.000;0.000;2022-08-19T12:03:55;26.10;;;15.00;;
56868;SDS011;42754;0.000;0.000;2022-08-19T12:06:23;28.58;;;14.38;;
56868;SDS011;42754;0.000;0.000;2022-08-19T12:08:58;24.45;;;14.50;;
56868;SDS011;42754;0.000;0.000;2022-08-19T12:11:25;18.33;;;9.82;;
56868;SDS011;42754;0.000;0.000;2022-08-19T12:13:51;22.05;;;12.18;;
56868;SDS011;42754;0.000;0.000;2022-08-19T12:16:22;19.42;;;12.18;;
56868;SDS011;42754;0.000;0.000;2022-08-19T12:18:49;18.25;;;10.73;;
56868;SDS011;42754;0.000;0.000;2022-08-19T12:21:18;16.75;;;9.25;;
56868;SDS011;42754;0.000;0.000;2022-08-19T12:23:53;21.10;;;10.77;;
56868;SDS011;42754;0.000;0.000;2022-08-19T12:26:20;23.77;;;11.68;;
56868;SDS011;42754;0.000;0.000;2022-08-19T12:28:46;22.70;;;11.25;;
56868;SDS011;42754;0.000;0.000;2022-08-19T12:31:13;18.48;;;9.32;;
56868;SDS011;42754;0.000;0.000;2022-08-19T12:33:39;16.00;;;9.27;;
56868;SDS011;42754;0.000;0.000;2022-08-19T12:36:08;16.95;;;9.55;;
56868;SDS011;42754;0.000;0.000;2022-08-19T12:38:35;18.95;;;9.48;;
56868;SDS011;42754;0.000;0.000;2022-08-19T12:41:02;18.20;;;10.75;;
56868;SDS011;42754;0.000;0.000;2022-08-19T12:43:31;14.80;;;9.00;;
56868;SDS011;42754;0.000;0.000;2022-08-19T12:45:57;21.15;;;11.05;;
56868;SDS011;42754;0.000;0.000;2022-08-19T12:48:23;16.98;;;8.10;;
56868;SDS011;42754;0.000;0.000;2022-08-19T12:50:49;17.77;;;10.05;;
56868;SDS011;42754;0.000;0.000;2022-08-19T12:53:14;17.70;;;8.88;;
56868;SDS011;42754;0.000;0.000;2022-08-19T12:55:41;19.20;;;9.75;;
56868;SDS011;42754;0.000;0.000;2022-08-19T12:58:08;16.77;;;8.73;;
56868;SDS011;42754;0.000;0.000;2022-08-19T13:00:33;14.77;;;8.52;;
56868;SDS011;42754;0.000;0.000;2022-08-19T13:02:59;13.93;;;7.68;;
56868;SDS011;42754;0.000;0.000;2022-08-19T13:05:27;17.73;;;9.98;;
56868;SDS011;42754;0.000;0.000;2022-08-19T13:07:56;14.50;;;8.60;;
56868;SDS011;42754;0.000;0.000;2022-08-19T13:10:25;16.95;;;9.18;;
56868;SDS011;42754;0.000;0.000;2022-08-19T13:12:54;10.70;;;6.35;;
56868;SDS011;42754;0.000;0.000;2022-08-19T13:15:21;13.15;;;7.85;;
56868;SDS011;42754;0.000;0.000;2022-08-19T13:17:48;9.07;;;5.88;;
56868;SDS011;42754;0.000;0.000;2022-08-19T13:20:16;11.02;;;6.30;;
56868;SDS011;42754;0.000;0.000;2022-08-19T13:22:44;12.13;;;6.68;;
56868;SDS011;42754;0.000;0.000;2022-08-19T13:25:10;9.52;;;6.05;;
56868;SDS011;42754;0.000;0.000;2022-08-19T13:27:38;9.95;;;6.43;;
56868;SDS011;42754;0.000;0.000;2022-08-19T13:30:04;11.68;;;6.88;;
56868;SDS011;42754;0.000;0.000;2022-08-19T13:32:50;9.63;;;6.15;;
56868;SDS011;42754;0.000;0.000;2022-08-19T13:35:34;8.70;;;5.97;;
56868;SDS011;42754;0.000;0.000;2022-08-19T13:38:00;14.55;;;6.70;;
56868;SDS011;42754;0.000;0.000;2022-08-19T13:40:30;10.48;;;7.45;;
56868;SDS011;42754;0.000;0.000;2022-08-19T13:42:58;16.83;;;8.23;;
56868;SDS011;42754;0.000;0.000;2022-08-19T13:45:26;16.67;;;7.45;;
56868;SDS011;42754;0.000;0.000;2022-08-19T13:47:53;16.10;;;9.13;;
56868;SDS011;42754;0.000;0.000;2022-08-19T13:50:22;14.30;;;8.98;;
56868;SDS011;42754;0.000;0.000;2022-08-19T13:52:52;15.38;;;7.38;;
56868;SDS011;42754;0.000;0.000;2022-08-19T13:55:18;13.93;;;8.95;;
56868;SDS011;42754;0.000;0.000;2022-08-19T13:57:44;15.73;;;8.95;;
56868;SDS011;42754;0.000;0.000;2022-08-19T14:00:14;21.20;;;9.32;;
56868;SDS011;42754;0.000;0.000;2022-08-19T14:02:45;14.65;;;8.90;;
56868;SDS011;42754;0.000;0.000;2022-08-19T14:05:13;13.27;;;8.60;;
56868;SDS011;42754;0.000;0.000;2022-08-19T14:07:39;13.98;;;9.00;;
56868;SDS011;42754;0.000;0.000;2022-08-19T14:10:06;13.90;;;8.82;;
56868;SDS011;42754;0.000;0.000;2022-08-19T14:12:33;12.88;;;8.90;;
56868;SDS011;42754;0.000;0.000;2022-08-19T14:15:00;11.98;;;7.90;;
56868;SDS011;42754;0.000;0.000;2022-08-19T14:17:27;10.25;;;7.40;;
56868;SDS011;42754;0.000;0.000;2022-08-19T14:19:57;11.75;;;7.72;;
56868;SDS011;42754;0.000;0.000;2022-08-19T14:22:25;15.98;;;8.88;;
56868;SDS011;42754;0.000;0.000;2022-08-19T14:24:50;14.77;;;8.55;;
56868;SDS011;42754;0.000;0.000;2022-08-19T14:27:16;13.07;;;7.97;;
56868;SDS011;42754;0.000;0.000;2022-08-19T14:29:42;16.30;;;8.82;;
56868;SDS011;42754;0.000;0.000;2022-08-19T14:32:07;11.60;;;8.45;;
56868;SDS011;42754;0.000;0.000;2022-08-19T14:34:33;15.32;;;9.10;;
56868;SDS011;42754;0.000;0.000;2022-08-19T14:37:02;17.25;;;9.80;;
56868;SDS011;42754;0.000;0.000;2022-08-19T14:39:27;16.77;;;9.07;;
56868;SDS011;42754;0.000;0.000;2022-08-19T14:41:53;16.00;;;9.30;;
56868;SDS011;42754;0.000;0.000;2022-08-19T14:44:19;22.90;;;11.13;;
56868;SDS011;42754;0.000;0.000;2022-08-19T14:46:44;20.45;;;10.15;;
56868;SDS011;42754;0.000;0.000;2022-08-19T14:49:10;15.40;;;10.38;;
56868;SDS011;42754;0.000;0.000;2022-08-19T14:51:36;15.60;;;10.10;;
56868;SDS011;42754;0.000;0.000;2022-08-19T14:54:02;19.60;;;12.50;;
56868;SDS011;42754;0.000;0.000;2022-08-19T14:56:28;18.67;;;12.10;;
56868;SDS011;42754;0.000;0.000;2022-08-19T14:58:55;17.77;;;12.30;;
56868;SDS011;42754;0.000;0.000;2022-08-19T15:01:24;19.80;;;11.32;;